Akita Airport
RJSK : now visible

Airfield :











YOU CAN JOIN US ON...

 
LOGIN :

Register | Disclaimer

   EN    FR    IT 

 









Legend :    VFR   Marginal VFR   IFR   Intensive IFR   Very Intensive IFR
Visi :
Ceiling :
>= 8 km
>= 3000ft
5 to 8 km
1000 to 3000 ft
1500m to 5 km
500 to 1000 ft
800 to 1500m
200 to 500 ft
< 800m
< 200 ft
Symbols :   Thunderstorms  Fog  Heavy snow  Heavy precipitations  Wind > 20 kt






- Airport Elevation : 313 ft
- IATA code : AXT


RJSK - Akita

CURRENT METAR :
  • 070300Z 28008KT 250V310 9999 FEW025 SCT030 19/13 Q1011

EXPIRED METARs :
  • 070200Z 28009KT 9999 FEW025 BKN035 19/12 Q1012
  • 070100Z 27004KT 180V310 9999 FEW020 SCT025 19/12 Q1012

TAF TAF RJSK
Valid from the 07 at 00:00 until the 08 at 06:00 UTC


062305Z 0700/0806 30012KT 9999 FEW010 BKN020
BECMG 0712/0715 14004KT
TEMPO 0715/0721 1500 BR FEW001 BKN003
BECMG 0800/0803 28010KT
RJJJ FIR / Asia



MET'MAP, your aeronautical weather chart ! - Copyright ORBIFLY December 2007 - Disclaimer

ORBIFLY MET'MAP TEAM :

Programming & Development : Alexandra Zaïnal
Concept & original design : Baudouin d'Aumeries
Assistance for programming : Marc-Olivier Méhu
Technical & hardware support : Manuel Goepfert

Contact : metmap@orbifly.com




SOURCES & CREDITS :

   NOAA       Earth
Advisory